sensor_id;sensor_type;location;lat;lon;timestamp;P1;durP1;ratioP1;P2;durP2;ratioP2
78648;SDS011;67962;47.310;9.642;2023-04-03T00:02:07;1.00;;;0.90;;
78648;SDS011;67962;47.310;9.642;2023-04-03T00:04:33;0.60;;;0.60;;
78648;SDS011;67962;47.310;9.642;2023-04-03T00:06:58;1.02;;;0.75;;
78648;SDS011;67962;47.310;9.642;2023-04-03T00:09:24;0.80;;;0.80;;
78648;SDS011;67962;47.310;9.642;2023-04-03T00:11:50;1.23;;;0.80;;
78648;SDS011;67962;47.310;9.642;2023-04-03T00:14:15;0.80;;;0.80;;
78648;SDS011;67962;47.310;9.642;2023-04-03T00:16:41;0.95;;;0.80;;
78648;SDS011;67962;47.310;9.642;2023-04-03T00:19:07;1.00;;;0.90;;
78648;SDS011;67962;47.310;9.642;2023-04-03T00:21:33;2.45;;;0.95;;
78648;SDS011;67962;47.310;9.642;2023-04-03T00:23:59;1.00;;;0.90;;
78648;SDS011;67962;47.310;9.642;2023-04-03T00:26:24;0.80;;;0.80;;
78648;SDS011;67962;47.310;9.642;2023-04-03T00:28:50;1.10;;;1.00;;
78648;SDS011;67962;47.310;9.642;2023-04-03T00:31:16;0.80;;;0.80;;
78648;SDS011;67962;47.310;9.642;2023-04-03T00:33:42;1.70;;;1.00;;
78648;SDS011;67962;47.310;9.642;2023-04-03T00:36:08;1.23;;;0.80;;
78648;SDS011;67962;47.310;9.642;2023-04-03T00:38:35;1.08;;;0.85;;
78648;SDS011;67962;47.310;9.642;2023-04-03T00:41:01;0.90;;;0.90;;
78648;SDS011;67962;47.310;9.642;2023-04-03T00:43:28;1.10;;;1.00;;
78648;SDS011;67962;47.310;9.642;2023-04-03T00:45:55;0.95;;;0.80;;
78648;SDS011;67962;47.310;9.642;2023-04-03T00:48:23;1.42;;;0.90;;
78648;SDS011;67962;47.310;9.642;2023-04-03T00:51:02;3.28;;;0.90;;
78648;SDS011;67962;47.310;9.642;2023-04-03T00:53:33;0.90;;;0.88;;
78648;SDS011;67962;47.310;9.642;2023-04-03T00:56:06;1.10;;;0.95;;
78648;SDS011;67962;47.310;9.642;2023-04-03T00:58:37;1.00;;;0.90;;
78648;SDS011;67962;47.310;9.642;2023-04-03T01:01:07;0.80;;;0.80;;
78648;SDS011;67962;47.310;9.642;2023-04-03T01:03:37;1.10;;;1.00;;
78648;SDS011;67962;47.310;9.642;2023-04-03T01:06:03;0.90;;;0.90;;
78648;SDS011;67962;47.310;9.642;2023-04-03T01:08:30;1.63;;;1.00;;
78648;SDS011;67962;47.310;9.642;2023-04-03T01:10:56;1.10;;;0.93;;
78648;SDS011;67962;47.310;9.642;2023-04-03T01:13:26;1.10;;;1.00;;
78648;SDS011;67962;47.310;9.642;2023-04-03T01:15:54;1.08;;;0.98;;
78648;SDS011;67962;47.310;9.642;2023-04-03T01:18:20;1.25;;;0.95;;
78648;SDS011;67962;47.310;9.642;2023-04-03T01:23:36;1.40;;;1.30;;
78648;SDS011;67962;47.310;9.642;2023-04-03T01:26:27;1.50;;;1.20;;
78648;SDS011;67962;47.310;9.642;2023-04-03T01:28:54;1.75;;;1.63;;
78648;SDS011;67962;47.310;9.642;2023-04-03T01:33:55;1.60;;;1.30;;
78648;SDS011;67962;47.310;9.642;2023-04-03T01:36:23;1.50;;;1.40;;
78648;SDS011;67962;47.310;9.642;2023-04-03T01:38:54;2.20;;;1.83;;
78648;SDS011;67962;47.310;9.642;2023-04-03T01:41:20;1.70;;;1.60;;
78648;SDS011;67962;47.310;9.642;2023-04-03T01:43:47;2.38;;;1.75;;
78648;SDS011;67962;47.310;9.642;2023-04-03T01:46:14;2.33;;;1.73;;
78648;SDS011;67962;47.310;9.642;2023-04-03T01:48:40;2.03;;;1.65;;
78648;SDS011;67962;47.310;9.642;2023-04-03T01:51:06;2.75;;;1.80;;
78648;SDS011;67962;47.310;9.642;2023-04-03T01:53:32;2.05;;;1.70;;
78648;SDS011;67962;47.310;9.642;2023-04-03T01:55:58;2.30;;;2.03;;
78648;SDS011;67962;47.310;9.642;2023-04-03T01:58:23;2.03;;;1.80;;
78648;SDS011;67962;47.310;9.642;2023-04-03T02:00:50;2.25;;;2.00;;
78648;SDS011;67962;47.310;9.642;2023-04-03T02:03:16;2.47;;;2.10;;
78648;SDS011;67962;47.310;9.642;2023-04-03T02:05:42;2.70;;;1.90;;
78648;SDS011;67962;47.310;9.642;2023-04-03T02:08:08;2.40;;;2.10;;
78648;SDS011;67962;47.310;9.642;2023-04-03T02:10:34;2.10;;;1.90;;
78648;SDS011;67962;47.310;9.642;2023-04-03T02:13:00;2.15;;;1.95;;
78648;SDS011;67962;47.310;9.642;2023-04-03T02:15:26;5.15;;;1.80;;
78648;SDS011;67962;47.310;9.642;2023-04-03T02:17:51;2.28;;;2.08;;
78648;SDS011;67962;47.310;9.642;2023-04-03T02:20:17;2.35;;;2.15;;
78648;SDS011;67962;47.310;9.642;2023-04-03T02:22:43;2.45;;;2.20;;
78648;SDS011;67962;47.310;9.642;2023-04-03T02:25:09;2.28;;;2.05;;
78648;SDS011;67962;47.310;9.642;2023-04-03T02:27:35;2.80;;;2.38;;
78648;SDS011;67962;47.310;9.642;2023-04-03T02:30:02;2.55;;;2.17;;
78648;SDS011;67962;47.310;9.642;2023-04-03T02:32:28;3.03;;;2.53;;
78648;SDS011;67962;47.310;9.642;2023-04-03T02:34:54;3.30;;;2.70;;
78648;SDS011;67962;47.310;9.642;2023-04-03T02:37:20;2.88;;;2.55;;
78648;SDS011;67962;47.310;9.642;2023-04-03T02:39:46;3.10;;;2.80;;
78648;SDS011;67962;47.310;9.642;2023-04-03T02:42:12;3.50;;;2.60;;
78648;SDS011;67962;47.310;9.642;2023-04-03T02:44:37;3.35;;;2.65;;
78648;SDS011;67962;47.310;9.642;2023-04-03T02:47:04;3.40;;;3.10;;
78648;SDS011;67962;47.310;9.642;2023-04-03T02:49:30;4.30;;;3.22;;
78648;SDS011;67962;47.310;9.642;2023-04-03T02:51:56;4.30;;;3.80;;
78648;SDS011;67962;47.310;9.642;2023-04-03T02:54:22;4.82;;;3.80;;
78648;SDS011;67962;47.310;9.642;2023-04-03T02:56:49;4.25;;;3.38;;
78648;SDS011;67962;47.310;9.642;2023-04-03T02:59:15;3.92;;;3.42;;
78648;SDS011;67962;47.310;9.642;2023-04-03T03:01:40;6.50;;;4.43;;
78648;SDS011;67962;47.310;9.642;2023-04-03T03:04:06;4.88;;;3.80;;
78648;SDS011;67962;47.310;9.642;2023-04-03T03:06:32;5.78;;;4.40;;
78648;SDS011;67962;47.310;9.642;2023-04-03T03:08:58;5.50;;;4.07;;
78648;SDS011;67962;47.310;9.642;2023-04-03T03:11:23;4.97;;;4.10;;
78648;SDS011;67962;47.310;9.642;2023-04-03T03:13:50;5.15;;;4.05;;
78648;SDS011;67962;47.310;9.642;2023-04-03T03:16:16;7.20;;;4.57;;
78648;SDS011;67962;47.310;9.642;2023-04-03T03:18:42;5.57;;;4.85;;
78648;SDS011;67962;47.310;9.642;2023-04-03T03:21:08;4.90;;;4.40;;
78648;SDS011;67962;47.310;9.642;2023-04-03T03:23:35;8.82;;;4.75;;
78648;SDS011;67962;47.310;9.642;2023-04-03T03:26:02;7.20;;;4.80;;
78648;SDS011;67962;47.310;9.642;2023-04-03T03:28:33;6.57;;;4.72;;
78648;SDS011;67962;47.310;9.642;2023-04-03T03:31:00;6.28;;;5.00;;
78648;SDS011;67962;47.310;9.642;2023-04-03T03:33:25;9.85;;;5.82;;
78648;SDS011;67962;47.310;9.642;2023-04-03T03:35:52;5.00;;;4.43;;
78648;SDS011;67962;47.310;9.642;2023-04-03T03:38:18;6.88;;;5.45;;
78648;SDS011;67962;47.310;9.642;2023-04-03T03:40:46;7.20;;;5.70;;
78648;SDS011;67962;47.310;9.642;2023-04-03T03:43:13;7.60;;;5.78;;
78648;SDS011;67962;47.310;9.642;2023-04-03T03:45:39;7.78;;;5.80;;
78648;SDS011;67962;47.310;9.642;2023-04-03T03:48:05;6.30;;;4.80;;
78648;SDS011;67962;47.310;9.642;2023-04-03T03:50:31;8.40;;;5.93;;
78648;SDS011;67962;47.310;9.642;2023-04-03T03:52:57;8.38;;;5.78;;
78648;SDS011;67962;47.310;9.642;2023-04-03T03:55:22;7.00;;;5.60;;
78648;SDS011;67962;47.310;9.642;2023-04-03T03:57:48;7.53;;;5.60;;
78648;SDS011;67962;47.310;9.642;2023-04-03T04:00:14;9.95;;;6.00;;
78648;SDS011;67962;47.310;9.642;2023-04-03T04:02:40;7.43;;;5.35;;
78648;SDS011;67962;47.310;9.642;2023-04-03T04:05:06;7.10;;;5.80;;
78648;SDS011;67962;47.310;9.642;2023-04-03T04:07:32;10.77;;;5.68;;
78648;SDS011;67962;47.310;9.642;2023-04-03T04:09:57;6.80;;;5.10;;
78648;SDS011;67962;47.310;9.642;2023-04-03T04:12:23;7.38;;;5.65;;
78648;SDS011;67962;47.310;9.642;2023-04-03T04:14:49;7.43;;;5.85;;
78648;SDS011;67962;47.310;9.642;2023-04-03T04:17:15;8.00;;;5.90;;
78648;SDS011;67962;47.310;9.642;2023-04-03T04:19:41;7.28;;;5.88;;
78648;SDS011;67962;47.310;9.642;2023-04-03T04:22:06;7.68;;;6.18;;
78648;SDS011;67962;47.310;9.642;2023-04-03T04:24:32;7.45;;;6.22;;
78648;SDS011;67962;47.310;9.642;2023-04-03T04:26:58;8.45;;;6.47;;
78648;SDS011;67962;47.310;9.642;2023-04-03T04:29:24;10.68;;;6.28;;
78648;SDS011;67962;47.310;9.642;2023-04-03T04:31:49;8.00;;;6.28;;
78648;SDS011;67962;47.310;9.642;2023-04-03T04:34:15;8.90;;;6.35;;
78648;SDS011;67962;47.310;9.642;2023-04-03T04:36:41;8.18;;;6.25;;
78648;SDS011;67962;47.310;9.642;2023-04-03T04:39:07;10.52;;;6.78;;
78648;SDS011;67962;47.310;9.642;2023-04-03T04:41:32;7.72;;;6.00;;
78648;SDS011;67962;47.310;9.642;2023-04-03T04:43:59;9.02;;;6.78;;
78648;SDS011;67962;47.310;9.642;2023-04-03T04:46:25;11.45;;;6.65;;
78648;SDS011;67962;47.310;9.642;2023-04-03T04:48:51;8.95;;;7.05;;
78648;SDS011;67962;47.310;9.642;2023-04-03T04:51:17;7.70;;;6.28;;
78648;SDS011;67962;47.310;9.642;2023-04-03T04:53:43;7.60;;;6.43;;
78648;SDS011;67962;47.310;9.642;2023-04-03T04:56:09;9.32;;;6.63;;
78648;SDS011;67962;47.310;9.642;2023-04-03T04:58:35;11.15;;;7.18;;
78648;SDS011;67962;47.310;9.642;2023-04-03T05:01:04;8.88;;;7.13;;
78648;SDS011;67962;47.310;9.642;2023-04-03T05:03:33;8.57;;;6.53;;
78648;SDS011;67962;47.310;9.642;2023-04-03T05:05:58;9.05;;;6.80;;
78648;SDS011;67962;47.310;9.642;2023-04-03T05:08:25;9.93;;;7.38;;
78648;SDS011;67962;47.310;9.642;2023-04-03T05:10:51;7.15;;;6.00;;
78648;SDS011;67962;47.310;9.642;2023-04-03T05:13:18;11.43;;;7.32;;
78648;SDS011;67962;47.310;9.642;2023-04-03T05:15:44;9.65;;;6.60;;
78648;SDS011;67962;47.310;9.642;2023-04-03T05:18:10;12.43;;;7.18;;
78648;SDS011;67962;47.310;9.642;2023-04-03T05:20:35;8.60;;;7.10;;
78648;SDS011;67962;47.310;9.642;2023-04-03T05:23:02;9.50;;;7.25;;
78648;SDS011;67962;47.310;9.642;2023-04-03T05:25:29;11.00;;;7.68;;
78648;SDS011;67962;47.310;9.642;2023-04-03T05:27:55;10.77;;;7.85;;
78648;SDS011;67962;47.310;9.642;2023-04-03T05:30:21;10.82;;;7.22;;
78648;SDS011;67962;47.310;9.642;2023-04-03T05:32:46;12.32;;;8.90;;
78648;SDS011;67962;47.310;9.642;2023-04-03T05:35:13;10.23;;;7.07;;
78648;SDS011;67962;47.310;9.642;2023-04-03T05:37:39;9.90;;;7.15;;
78648;SDS011;67962;47.310;9.642;2023-04-03T05:40:06;10.35;;;7.70;;
78648;SDS011;67962;47.310;9.642;2023-04-03T05:42:32;11.18;;;7.90;;
78648;SDS011;67962;47.310;9.642;2023-04-03T05:44:58;10.35;;;7.97;;
78648;SDS011;67962;47.310;9.642;2023-04-03T05:47:23;9.80;;;7.85;;
78648;SDS011;67962;47.310;9.642;2023-04-03T05:49:49;10.73;;;7.57;;
78648;SDS011;67962;47.310;9.642;2023-04-03T05:54:43;9.77;;;7.20;;
78648;SDS011;67962;47.310;9.642;2023-04-03T05:57:11;11.75;;;8.30;;
78648;SDS011;67962;47.310;9.642;2023-04-03T05:59:37;9.98;;;7.57;;
78648;SDS011;67962;47.310;9.642;2023-04-03T06:02:03;9.63;;;7.35;;
78648;SDS011;67962;47.310;9.642;2023-04-03T06:04:28;10.02;;;7.45;;
78648;SDS011;67962;47.310;9.642;2023-04-03T06:06:57;10.05;;;8.07;;
78648;SDS011;67962;47.310;9.642;2023-04-03T06:09:24;12.82;;;8.15;;
78648;SDS011;67962;47.310;9.642;2023-04-03T06:11:52;12.32;;;8.48;;
78648;SDS011;67962;47.310;9.642;2023-04-03T06:14:18;10.57;;;8.25;;
78648;SDS011;67962;47.310;9.642;2023-04-03T06:16:44;10.57;;;7.85;;
78648;SDS011;67962;47.310;9.642;2023-04-03T06:19:10;9.82;;;7.75;;
78648;SDS011;67962;47.310;9.642;2023-04-03T06:21:37;9.32;;;8.05;;
78648;SDS011;67962;47.310;9.642;2023-04-03T06:24:03;11.13;;;7.97;;
78648;SDS011;67962;47.310;9.642;2023-04-03T06:26:30;11.48;;;8.55;;
78648;SDS011;67962;47.310;9.642;2023-04-03T06:28:55;15.82;;;8.48;;
78648;SDS011;67962;47.310;9.642;2023-04-03T06:31:21;11.27;;;7.80;;
78648;SDS011;67962;47.310;9.642;2023-04-03T06:33:47;11.00;;;8.30;;
78648;SDS011;67962;47.310;9.642;2023-04-03T06:36:13;11.50;;;8.77;;
78648;SDS011;67962;47.310;9.642;2023-04-03T06:38:39;11.30;;;8.82;;
78648;SDS011;67962;47.310;9.642;2023-04-03T06:41:05;12.80;;;9.52;;
78648;SDS011;67962;47.310;9.642;2023-04-03T06:43:31;11.80;;;9.10;;
78648;SDS011;67962;47.310;9.642;2023-04-03T06:45:57;10.60;;;8.23;;
78648;SDS011;67962;47.310;9.642;2023-04-03T06:48:23;12.23;;;8.90;;
78648;SDS011;67962;47.310;9.642;2023-04-03T06:50:48;15.00;;;8.40;;
78648;SDS011;67962;47.310;9.642;2023-04-03T06:53:14;13.05;;;9.90;;
78648;SDS011;67962;47.310;9.642;2023-04-03T06:55:40;12.38;;;9.68;;
78648;SDS011;67962;47.310;9.642;2023-04-03T06:58:06;12.80;;;10.25;;
78648;SDS011;67962;47.310;9.642;2023-04-03T07:00:32;14.38;;;10.07;;
78648;SDS011;67962;47.310;9.642;2023-04-03T07:02:58;13.43;;;10.10;;
78648;SDS011;67962;47.310;9.642;2023-04-03T07:05:24;13.13;;;10.18;;
78648;SDS011;67962;47.310;9.642;2023-04-03T07:07:51;12.68;;;8.77;;
78648;SDS011;67962;47.310;9.642;2023-04-03T07:10:18;11.63;;;9.05;;
78648;SDS011;67962;47.310;9.642;2023-04-03T07:12:44;11.05;;;8.98;;
78648;SDS011;67962;47.310;9.642;2023-04-03T07:15:10;15.07;;;10.70;;
78648;SDS011;67962;47.310;9.642;2023-04-03T07:17:38;12.85;;;10.25;;
78648;SDS011;67962;47.310;9.642;2023-04-03T07:20:04;12.02;;;9.07;;
78648;SDS011;67962;47.310;9.642;2023-04-03T07:22:30;17.00;;;11.40;;
78648;SDS011;67962;47.310;9.642;2023-04-03T07:24:56;16.83;;;12.15;;
78648;SDS011;67962;47.310;9.642;2023-04-03T07:27:23;15.70;;;11.95;;
78648;SDS011;67962;47.310;9.642;2023-04-03T07:29:50;15.35;;;10.75;;
78648;SDS011;67962;47.310;9.642;2023-04-03T07:32:16;13.50;;;9.85;;
78648;SDS011;67962;47.310;9.642;2023-04-03T07:34:42;14.07;;;9.18;;
78648;SDS011;67962;47.310;9.642;2023-04-03T07:37:09;15.10;;;10.63;;
78648;SDS011;67962;47.310;9.642;2023-04-03T07:39:35;15.18;;;11.18;;
78648;SDS011;67962;47.310;9.642;2023-04-03T07:42:01;17.60;;;12.15;;
78648;SDS011;67962;47.310;9.642;2023-04-03T07:44:27;12.35;;;9.80;;
78648;SDS011;67962;47.310;9.642;2023-04-03T07:46:53;11.60;;;9.38;;
78648;SDS011;67962;47.310;9.642;2023-04-03T07:49:22;13.52;;;9.00;;
78648;SDS011;67962;47.310;9.642;2023-04-03T07:51:49;22.38;;;12.48;;
78648;SDS011;67962;47.310;9.642;2023-04-03T07:54:15;13.50;;;9.63;;
78648;SDS011;67962;47.310;9.642;2023-04-03T07:56:41;15.30;;;10.32;;
78648;SDS011;67962;47.310;9.642;2023-04-03T07:59:08;12.25;;;9.38;;
78648;SDS011;67962;47.310;9.642;2023-04-03T08:01:34;11.68;;;9.15;;
78648;SDS011;67962;47.310;9.642;2023-04-03T08:04:00;11.93;;;9.85;;
78648;SDS011;67962;47.310;9.642;2023-04-03T08:06:26;13.07;;;10.02;;
78648;SDS011;67962;47.310;9.642;2023-04-03T08:08:54;16.58;;;11.82;;
78648;SDS011;67962;47.310;9.642;2023-04-03T08:11:20;14.02;;;10.68;;
78648;SDS011;67962;47.310;9.642;2023-04-03T08:13:46;12.82;;;9.48;;
78648;SDS011;67962;47.310;9.642;2023-04-03T08:16:12;13.98;;;9.88;;
78648;SDS011;67962;47.310;9.642;2023-04-03T08:18:42;11.82;;;9.30;;
78648;SDS011;67962;47.310;9.642;2023-04-03T08:21:09;11.55;;;8.80;;
78648;SDS011;67962;47.310;9.642;2023-04-03T08:23:36;11.60;;;8.48;;
78648;SDS011;67962;47.310;9.642;2023-04-03T08:26:06;13.13;;;9.55;;
78648;SDS011;67962;47.310;9.642;2023-04-03T08:28:36;15.05;;;10.57;;
78648;SDS011;67962;47.310;9.642;2023-04-03T08:31:03;11.13;;;8.25;;
78648;SDS011;67962;47.310;9.642;2023-04-03T08:33:31;13.48;;;9.10;;
78648;SDS011;67962;47.310;9.642;2023-04-03T08:35:58;16.15;;;9.48;;
78648;SDS011;67962;47.310;9.642;2023-04-03T08:38:24;14.65;;;9.02;;
78648;SDS011;67962;47.310;9.642;2023-04-03T08:49:13;12.32;;;8.40;;
78648;SDS011;67962;47.310;9.642;2023-04-03T08:51:53;10.75;;;8.13;;
78648;SDS011;67962;47.310;9.642;2023-04-03T08:54:25;10.73;;;7.93;;
78648;SDS011;67962;47.310;9.642;2023-04-03T08:56:55;13.48;;;7.80;;
78648;SDS011;67962;47.310;9.642;2023-04-03T08:59:26;15.65;;;7.95;;
78648;SDS011;67962;47.310;9.642;2023-04-03T09:01:54;13.30;;;8.00;;
78648;SDS011;67962;47.310;9.642;2023-04-03T09:04:23;13.88;;;8.18;;
78648;SDS011;67962;47.310;9.642;2023-04-03T09:06:54;9.90;;;7.57;;
78648;SDS011;67962;47.310;9.642;2023-04-03T09:09:36;11.20;;;7.20;;
78648;SDS011;67962;47.310;9.642;2023-04-03T09:12:20;9.32;;;7.28;;
78648;SDS011;67962;47.310;9.642;2023-04-03T09:20:32;11.40;;;8.00;;
78648;SDS011;67962;47.310;9.642;2023-04-03T09:26:19;10.50;;;7.70;;
78648;SDS011;67962;47.310;9.642;2023-04-03T09:28:51;14.55;;;8.63;;
78648;SDS011;67962;47.310;9.642;2023-04-03T09:31:28;12.60;;;8.10;;
78648;SDS011;67962;47.310;9.642;2023-04-03T09:34:01;9.40;;;7.15;;
78648;SDS011;67962;47.310;9.642;2023-04-03T09:44:21;11.63;;;7.60;;
78648;SDS011;67962;47.310;9.642;2023-04-03T09:46:49;9.75;;;6.82;;
78648;SDS011;67962;47.310;9.642;2023-04-03T09:49:16;12.77;;;7.07;;
78648;SDS011;67962;47.310;9.642;2023-04-03T09:51:43;11.65;;;7.55;;
78648;SDS011;67962;47.310;9.642;2023-04-03T09:56:54;10.88;;;7.50;;
78648;SDS011;67962;47.310;9.642;2023-04-03T09:59:23;10.52;;;7.00;;
78648;SDS011;67962;47.310;9.642;2023-04-03T10:01:59;10.57;;;6.93;;
78648;SDS011;67962;47.310;9.642;2023-04-03T10:04:38;9.68;;;7.10;;
78648;SDS011;67962;47.310;9.642;2023-04-03T10:07:25;8.98;;;6.65;;
78648;SDS011;67962;47.310;9.642;2023-04-03T10:09:56;8.45;;;6.82;;
78648;SDS011;67962;47.310;9.642;2023-04-03T10:12:24;10.18;;;6.82;;
78648;SDS011;67962;47.310;9.642;2023-04-03T10:31:21;8.73;;;5.82;;
78648;SDS011;67962;47.310;9.642;2023-04-03T10:33:53;5.93;;;5.00;;
78648;SDS011;67962;47.310;9.642;2023-04-03T10:36:38;7.65;;;5.30;;
78648;SDS011;67962;47.310;9.642;2023-04-03T10:55:35;7.45;;;5.43;;
78648;SDS011;67962;47.310;9.642;2023-04-03T10:58:15;7.93;;;5.00;;
78648;SDS011;67962;47.310;9.642;2023-04-03T11:00:58;7.78;;;4.72;;
78648;SDS011;67962;47.310;9.642;2023-04-03T11:03:33;7.32;;;4.40;;
78648;SDS011;67962;47.310;9.642;2023-04-03T11:06:09;5.55;;;4.43;;
78648;SDS011;67962;47.310;9.642;2023-04-03T11:11:30;5.25;;;4.30;;
78648;SDS011;67962;47.310;9.642;2023-04-03T11:14:04;5.15;;;4.47;;
78648;SDS011;67962;47.310;9.642;2023-04-03T11:16:46;7.40;;;4.30;;
78648;SDS011;67962;47.310;9.642;2023-04-03T11:19:20;5.88;;;4.40;;
78648;SDS011;67962;47.310;9.642;2023-04-03T11:25:04;5.65;;;4.43;;
78648;SDS011;67962;47.310;9.642;2023-04-03T11:27:43;6.60;;;4.50;;
78648;SDS011;67962;47.310;9.642;2023-04-03T11:30:20;6.10;;;4.47;;
78648;SDS011;67962;47.310;9.642;2023-04-03T11:35:28;6.38;;;4.55;;
78648;SDS011;67962;47.310;9.642;2023-04-03T11:37:55;6.78;;;5.20;;
78648;SDS011;67962;47.310;9.642;2023-04-03T11:40:24;5.97;;;4.70;;
78648;SDS011;67962;47.310;9.642;2023-04-03T11:43:39;6.45;;;4.60;;
78648;SDS011;67962;47.310;9.642;2023-04-03T11:46:03;7.30;;;4.68;;
78648;SDS011;67962;47.310;9.642;2023-04-03T11:53:38;5.60;;;4.32;;
78648;SDS011;67962;47.310;9.642;2023-04-03T12:01:50;8.07;;;4.70;;
78648;SDS011;67962;47.310;9.642;2023-04-03T12:04:17;9.18;;;4.78;;
78648;SDS011;67962;47.310;9.642;2023-04-03T12:11:51;5.65;;;4.38;;
78648;SDS011;67962;47.310;9.642;2023-04-03T12:14:18;8.38;;;4.57;;
78648;SDS011;67962;47.310;9.642;2023-04-03T12:16:47;5.45;;;4.07;;
78648;SDS011;67962;47.310;9.642;2023-04-03T12:24:29;6.38;;;4.38;;
78648;SDS011;67962;47.310;9.642;2023-04-03T12:37:35;6.18;;;3.88;;
78648;SDS011;67962;47.310;9.642;2023-04-03T12:45:30;6.03;;;4.18;;
78648;SDS011;67962;47.310;9.642;2023-04-03T12:48:26;4.40;;;3.67;;
78648;SDS011;67962;47.310;9.642;2023-04-03T12:50:53;4.60;;;3.58;;
78648;SDS011;67962;47.310;9.642;2023-04-03T12:53:22;6.55;;;4.05;;
78648;SDS011;67962;47.310;9.642;2023-04-03T12:55:55;4.68;;;3.42;;
78648;SDS011;67962;47.310;9.642;2023-04-03T12:58:23;5.47;;;3.80;;
78648;SDS011;67962;47.310;9.642;2023-04-03T13:03:34;3.70;;;3.10;;
78648;SDS011;67962;47.310;9.642;2023-04-03T13:06:04;4.88;;;3.63;;
78648;SDS011;67962;47.310;9.642;2023-04-03T13:08:30;4.95;;;3.70;;
78648;SDS011;67962;47.310;9.642;2023-04-03T13:11:05;4.55;;;3.40;;
78648;SDS011;67962;47.310;9.642;2023-04-03T13:13:35;4.43;;;3.28;;
78648;SDS011;67962;47.310;9.642;2023-04-03T13:16:10;5.65;;;3.30;;
78648;SDS011;67962;47.310;9.642;2023-04-03T13:18:37;4.47;;;3.10;;
78648;SDS011;67962;47.310;9.642;2023-04-03T13:21:05;5.55;;;3.00;;
78648;SDS011;67962;47.310;9.642;2023-04-03T13:23:34;5.43;;;3.03;;
78648;SDS011;67962;47.310;9.642;2023-04-03T13:26:02;3.78;;;2.78;;
78648;SDS011;67962;47.310;9.642;2023-04-03T13:28:29;6.03;;;2.58;;
78648;SDS011;67962;47.310;9.642;2023-04-03T13:33:29;5.18;;;2.75;;
78648;SDS011;67962;47.310;9.642;2023-04-03T13:36:02;4.45;;;2.78;;
78648;SDS011;67962;47.310;9.642;2023-04-03T13:38:32;3.25;;;2.40;;
78648;SDS011;67962;47.310;9.642;2023-04-03T13:41:20;6.43;;;2.72;;
78648;SDS011;67962;47.310;9.642;2023-04-03T13:43:49;3.00;;;2.33;;
78648;SDS011;67962;47.310;9.642;2023-04-03T13:48:42;3.30;;;2.40;;
78648;SDS011;67962;47.310;9.642;2023-04-03T13:53:54;3.72;;;2.20;;
78648;SDS011;67962;47.310;9.642;2023-04-03T13:59:05;5.13;;;2.45;;
78648;SDS011;67962;47.310;9.642;2023-04-03T14:04:17;2.58;;;1.95;;
78648;SDS011;67962;47.310;9.642;2023-04-03T14:06:45;4.60;;;2.30;;
78648;SDS011;67962;47.310;9.642;2023-04-03T14:09:12;3.22;;;1.90;;
78648;SDS011;67962;47.310;9.642;2023-04-03T14:11:38;3.25;;;2.20;;
78648;SDS011;67962;47.310;9.642;2023-04-03T14:14:09;3.03;;;2.25;;
78648;SDS011;67962;47.310;9.642;2023-04-03T14:19:02;3.33;;;2.10;;
78648;SDS011;67962;47.310;9.642;2023-04-03T14:21:28;2.47;;;2.00;;
78648;SDS011;67962;47.310;9.642;2023-04-03T14:23:54;2.35;;;1.98;;
78648;SDS011;67962;47.310;9.642;2023-04-03T14:26:21;3.22;;;1.90;;
78648;SDS011;67962;47.310;9.642;2023-04-03T14:28:51;3.72;;;2.20;;
78648;SDS011;67962;47.310;9.642;2023-04-03T14:31:19;5.28;;;2.03;;
78648;SDS011;67962;47.310;9.642;2023-04-03T14:33:44;5.00;;;2.20;;
78648;SDS011;67962;47.310;9.642;2023-04-03T14:38:41;3.42;;;2.22;;
78648;SDS011;67962;47.310;9.642;2023-04-03T14:41:07;4.07;;;2.10;;
78648;SDS011;67962;47.310;9.642;2023-04-03T14:43:35;3.33;;;2.28;;
78648;SDS011;67962;47.310;9.642;2023-04-03T14:46:01;3.10;;;2.33;;
78648;SDS011;67962;47.310;9.642;2023-04-03T14:48:27;3.17;;;2.10;;
78648;SDS011;67962;47.310;9.642;2023-04-03T14:50:55;6.57;;;2.30;;
78648;SDS011;67962;47.310;9.642;2023-04-03T14:53:21;3.38;;;2.15;;
78648;SDS011;67962;47.310;9.642;2023-04-03T14:55:51;3.88;;;2.22;;
78648;SDS011;67962;47.310;9.642;2023-04-03T14:58:17;3.75;;;2.22;;
78648;SDS011;67962;47.310;9.642;2023-04-03T15:00:44;3.08;;;2.10;;
78648;SDS011;67962;47.310;9.642;2023-04-03T15:03:15;2.42;;;2.00;;
78648;SDS011;67962;47.310;9.642;2023-04-03T15:05:45;3.00;;;2.38;;
78648;SDS011;67962;47.310;9.642;2023-04-03T15:08:19;2.70;;;1.95;;
78648;SDS011;67962;47.310;9.642;2023-04-03T15:10:54;3.30;;;2.45;;
78648;SDS011;67962;47.310;9.642;2023-04-03T15:13:21;3.20;;;2.30;;
78648;SDS011;67962;47.310;9.642;2023-04-03T15:15:47;3.33;;;2.03;;
78648;SDS011;67962;47.310;9.642;2023-04-03T15:18:18;3.95;;;2.65;;
78648;SDS011;67962;47.310;9.642;2023-04-03T15:20:47;5.75;;;2.00;;
78648;SDS011;67962;47.310;9.642;2023-04-03T15:23:14;3.00;;;2.45;;
78648;SDS011;67962;47.310;9.642;2023-04-03T15:25:44;3.15;;;2.20;;
78648;SDS011;67962;47.310;9.642;2023-04-03T15:28:19;3.58;;;2.30;;
78648;SDS011;67962;47.310;9.642;2023-04-03T15:30:51;3.42;;;2.47;;
78648;SDS011;67962;47.310;9.642;2023-04-03T15:33:17;5.05;;;2.40;;
78648;SDS011;67962;47.310;9.642;2023-04-03T15:35:42;4.75;;;2.53;;
78648;SDS011;67962;47.310;9.642;2023-04-03T15:38:08;2.88;;;2.22;;
78648;SDS011;67962;47.310;9.642;2023-04-03T15:40:35;4.22;;;2.20;;
78648;SDS011;67962;47.310;9.642;2023-04-03T15:43:01;6.43;;;2.60;;
78648;SDS011;67962;47.310;9.642;2023-04-03T15:45:29;4.03;;;2.22;;
78648;SDS011;67962;47.310;9.642;2023-04-03T15:47:56;3.38;;;2.20;;
78648;SDS011;67962;47.310;9.642;2023-04-03T15:50:23;5.03;;;2.40;;
78648;SDS011;67962;47.310;9.642;2023-04-03T15:52:49;4.35;;;2.42;;
78648;SDS011;67962;47.310;9.642;2023-04-03T15:55:22;4.28;;;2.20;;
78648;SDS011;67962;47.310;9.642;2023-04-03T15:57:51;3.95;;;2.60;;
78648;SDS011;67962;47.310;9.642;2023-04-03T16:00:18;4.57;;;2.67;;
78648;SDS011;67962;47.310;9.642;2023-04-03T16:02:45;4.50;;;2.33;;
78648;SDS011;67962;47.310;9.642;2023-04-03T16:05:12;3.45;;;2.47;;
78648;SDS011;67962;47.310;9.642;2023-04-03T16:07:40;3.22;;;2.20;;
78648;SDS011;67962;47.310;9.642;2023-04-03T16:10:07;7.18;;;2.40;;
78648;SDS011;67962;47.310;9.642;2023-04-03T16:12:34;2.80;;;2.30;;
78648;SDS011;67962;47.310;9.642;2023-04-03T16:15:00;4.28;;;2.70;;
78648;SDS011;67962;47.310;9.642;2023-04-03T16:17:27;5.15;;;2.40;;
78648;SDS011;67962;47.310;9.642;2023-04-03T16:19:53;4.53;;;2.53;;
78648;SDS011;67962;47.310;9.642;2023-04-03T16:22:20;3.38;;;2.60;;
78648;SDS011;67962;47.310;9.642;2023-04-03T16:24:48;3.58;;;2.60;;
78648;SDS011;67962;47.310;9.642;2023-04-03T16:27:14;4.15;;;2.58;;
78648;SDS011;67962;47.310;9.642;2023-04-03T16:29:40;3.92;;;2.45;;
78648;SDS011;67962;47.310;9.642;2023-04-03T16:32:06;6.35;;;2.63;;
78648;SDS011;67962;47.310;9.642;2023-04-03T16:34:32;4.57;;;3.13;;
78648;SDS011;67962;47.310;9.642;2023-04-03T16:36:58;4.75;;;2.78;;
78648;SDS011;67962;47.310;9.642;2023-04-03T16:39:24;4.60;;;2.70;;
78648;SDS011;67962;47.310;9.642;2023-04-03T16:41:50;5.25;;;2.78;;
78648;SDS011;67962;47.310;9.642;2023-04-03T16:44:16;6.50;;;2.80;;
78648;SDS011;67962;47.310;9.642;2023-04-03T16:46:42;4.60;;;2.40;;
78648;SDS011;67962;47.310;9.642;2023-04-03T16:49:08;6.95;;;2.97;;
78648;SDS011;67962;47.310;9.642;2023-04-03T16:51:34;3.58;;;2.83;;
78648;SDS011;67962;47.310;9.642;2023-04-03T16:54:00;5.13;;;3.10;;
78648;SDS011;67962;47.310;9.642;2023-04-03T16:56:25;4.35;;;2.63;;
78648;SDS011;67962;47.310;9.642;2023-04-03T16:58:52;6.65;;;2.70;;
78648;SDS011;67962;47.310;9.642;2023-04-03T17:01:19;5.95;;;2.92;;
78648;SDS011;67962;47.310;9.642;2023-04-03T17:03:46;5.15;;;3.20;;